createdAt,value
2022-09-23T00:01:44.088Z,36
2022-09-23T00:04:16.550Z,35
2022-09-23T00:06:49.215Z,36
2022-09-23T00:09:21.549Z,30
2022-09-23T00:11:54.183Z,35
2022-09-23T00:14:27.401Z,32
2022-09-23T00:16:59.805Z,35
2022-09-23T00:19:32.332Z,32
2022-09-23T00:22:04.468Z,28
2022-09-23T00:24:36.941Z,28
2022-09-23T00:27:09.049Z,32
2022-09-23T00:29:41.114Z,32
2022-09-23T00:32:14.225Z,33
2022-09-23T00:34:46.535Z,28
2022-09-23T00:37:18.790Z,26
2022-09-23T00:39:51.301Z,37
2022-09-23T00:42:23.875Z,31
2022-09-23T00:44:57.206Z,34
2022-09-23T00:47:29.881Z,33
2022-09-23T00:50:02.181Z,31
2022-09-23T00:52:34.619Z,35
2022-09-23T00:55:07.241Z,32
2022-09-23T00:57:39.990Z,31
2022-09-23T01:00:11.865Z,32
2022-09-23T01:02:44.303Z,34
2022-09-23T01:05:16.875Z,39
2022-09-23T01:07:49.066Z,36
2022-09-23T01:10:21.503Z,34
2022-09-23T01:12:59.241Z,35
2022-09-23T01:15:31.659Z,33
2022-09-23T01:18:04.153Z,34
2022-09-23T01:20:37.283Z,33
2022-09-23T01:23:09.879Z,36
2022-09-23T01:25:42.370Z,36
2022-09-23T01:28:15.042Z,36
2022-09-23T01:30:47.339Z,36
2022-09-23T01:33:19.690Z,35
2022-09-23T01:35:52.252Z,32
2022-09-23T01:38:24.809Z,34
2022-09-23T01:40:57.091Z,37
2022-09-23T01:43:29.792Z,36
2022-09-23T01:46:02.285Z,31
2022-09-23T01:48:35.018Z,36
2022-09-23T01:51:07.683Z,32
2022-09-23T01:53:40.135Z,28
2022-09-23T01:56:12.426Z,36
2022-09-23T01:58:45.143Z,31
2022-09-23T02:01:17.387Z,28
2022-09-23T02:03:49.848Z,28
2022-09-23T02:06:22.361Z,29
2022-09-23T02:08:55.164Z,31
2022-09-23T02:11:28.623Z,32
2022-09-23T02:14:01.281Z,28
2022-09-23T02:16:34.554Z,33
2022-09-23T02:19:07.144Z,28
2022-09-23T02:21:39.528Z,34
2022-09-23T02:24:11.879Z,28
2022-09-23T02:26:44.252Z,32
2022-09-23T02:29:16.829Z,26
2022-09-23T02:31:49.317Z,28
2022-09-23T02:34:22.159Z,24
2022-09-23T02:36:54.828Z,24
2022-09-23T02:39:27.317Z,28
2022-09-23T02:42:00.036Z,25
2022-09-23T02:44:32.430Z,20
2022-09-23T02:47:05.098Z,30
2022-09-23T02:49:37.891Z,24
2022-09-23T02:52:10.216Z,28
2022-09-23T02:54:43.750Z,32
2022-09-23T02:57:16.306Z,27
2022-09-23T02:59:48.595Z,24
2022-09-23T03:02:21.144Z,32
2022-09-23T03:04:53.969Z,30
2022-09-23T03:07:26.178Z,24
2022-09-23T03:09:58.734Z,23
2022-09-23T03:12:31.442Z,27
2022-09-23T03:15:04.032Z,28
2022-09-23T03:17:36.409Z,24
2022-09-23T03:20:08.959Z,28
2022-09-23T03:22:41.400Z,24
2022-09-23T03:25:13.751Z,24
2022-09-23T03:27:46.299Z,31
2022-09-23T03:30:18.626Z,25
2022-09-23T03:32:51.055Z,24
2022-09-23T03:35:23.279Z,24
2022-09-23T03:37:55.959Z,28
2022-09-23T03:40:28.444Z,25
2022-09-23T03:43:00.967Z,28
2022-09-23T03:45:33.735Z,29
2022-09-23T03:48:07.343Z,28
2022-09-23T03:50:39.946Z,30
2022-09-23T03:53:12.373Z,24
2022-09-23T03:55:44.897Z,33
2022-09-23T03:58:17.187Z,28
2022-09-23T04:00:49.597Z,24
2022-09-23T04:03:21.831Z,28
2022-09-23T04:05:54.078Z,28
2022-09-23T04:08:26.627Z,28
2022-09-23T04:10:59.275Z,32
2022-09-23T04:13:31.811Z,28
2022-09-23T04:16:04.533Z,29
2022-09-23T04:18:37.457Z,27
2022-09-23T04:21:08.363Z,24
2022-09-23T04:23:40.282Z,28
2022-09-23T04:26:13.660Z,39
2022-09-23T04:28:45.842Z,33
2022-09-23T04:31:18.027Z,28
2022-09-23T04:33:51.633Z,29
2022-09-23T04:36:27.982Z,27
2022-09-23T04:39:00.510Z,28
2022-09-23T04:41:33.002Z,29
2022-09-23T04:44:05.431Z,35
2022-09-23T04:46:37.965Z,34
2022-09-23T04:49:10.591Z,36
2022-09-23T04:51:42.945Z,37
2022-09-23T04:54:15.222Z,36
2022-09-23T04:56:47.408Z,28
2022-09-23T04:59:19.861Z,34
2022-09-23T05:01:52.371Z,32
2022-09-23T05:04:24.789Z,35
2022-09-23T05:06:59.477Z,32
2022-09-23T05:09:28.508Z,32
2022-09-23T05:12:00.594Z,31
2022-09-23T05:14:33.351Z,34
2022-09-23T05:17:06.951Z,32
2022-09-23T05:19:39.197Z,36
2022-09-23T05:22:11.601Z,40
2022-09-23T05:24:43.902Z,36
2022-09-23T05:27:16.329Z,37
2022-09-23T05:29:48.726Z,38
2022-09-23T05:32:21.289Z,37
2022-09-23T05:34:53.620Z,36
2022-09-23T05:37:25.971Z,38
2022-09-23T05:39:58.098Z,42
2022-09-23T05:42:28.631Z,38
2022-09-23T05:45:00.425Z,43
2022-09-23T05:47:32.709Z,37
2022-09-23T05:50:04.789Z,36
2022-09-23T05:52:36.830Z,38
2022-09-23T05:55:08.960Z,36
2022-09-23T05:57:40.858Z,41
2022-09-23T06:00:13.345Z,40
2022-09-23T06:02:45.512Z,40
2022-09-23T06:05:17.228Z,41
2022-09-23T06:07:49.548Z,40
2022-09-23T06:10:21.844Z,40
2022-09-23T06:12:54.365Z,42
2022-09-23T06:15:26.989Z,38
2022-09-23T06:17:59.638Z,40
2022-09-23T06:20:33.086Z,36
2022-09-23T06:23:09.288Z,44
2022-09-23T06:25:39.437Z,56
2022-09-23T06:28:11.843Z,52
2022-09-23T06:30:44.066Z,42
2022-09-23T06:33:20.330Z,43
2022-09-23T06:35:56.994Z,44
2022-09-23T06:38:21.880Z,44
2022-09-23T06:40:54.745Z,43
2022-09-23T06:43:27.058Z,29
2022-09-23T06:45:59.796Z,20
2022-09-23T06:48:32.509Z,24
2022-09-23T06:51:05.021Z,24
2022-09-23T06:53:39.597Z,24
2022-09-23T06:56:12.075Z,24
2022-09-23T06:58:44.611Z,19
2022-09-23T07:01:17.378Z,23
2022-09-23T07:03:49.878Z,23
2022-09-23T07:06:22.343Z,27
2022-09-23T07:08:54.892Z,24
2022-09-23T07:11:28.560Z,24
2022-09-23T07:14:01.005Z,25
2022-09-23T07:16:33.369Z,25
2022-09-23T07:19:06.339Z,26
2022-09-23T07:21:39.164Z,24
2022-09-23T07:24:13.800Z,20
2022-09-23T07:26:48.542Z,26
2022-09-23T07:29:21.011Z,24
2022-09-23T07:32:06.510Z,16
2022-09-23T07:34:29.023Z,24
2022-09-23T07:37:00.594Z,20
2022-09-23T07:39:33.102Z,20
2022-09-23T07:42:05.335Z,24
2022-09-23T07:44:37.375Z,20
2022-09-23T07:47:09.913Z,20
2022-09-23T07:49:41.947Z,23
2022-09-23T07:52:14.310Z,16
2022-09-23T07:54:46.951Z,20
2022-09-23T07:57:19.608Z,19
2022-09-23T07:59:52.109Z,20
2022-09-23T08:02:25.294Z,22
2022-09-23T08:04:56.408Z,17
2022-09-23T08:07:28.676Z,17
2022-09-23T08:10:01.303Z,17
2022-09-23T08:12:33.928Z,21
2022-09-23T08:15:06.725Z,20
2022-09-23T08:17:39.228Z,24
2022-09-23T08:20:12.332Z,24
2022-09-23T08:22:44.505Z,25
2022-09-23T08:25:20.562Z,25
2022-09-23T08:27:50.013Z,27
2022-09-23T08:30:22.652Z,24
2022-09-23T08:32:55.059Z,21
2022-09-23T08:35:25.931Z,22
2022-09-23T08:37:58.168Z,24
2022-09-23T08:40:31.430Z,20
2022-09-23T08:43:03.772Z,20
2022-09-23T08:45:36.547Z,20
2022-09-23T08:48:12.777Z,20
2022-09-23T08:50:41.514Z,20
2022-09-23T08:53:13.967Z,16
2022-09-23T08:55:46.889Z,20
2022-09-23T08:58:26.782Z,15
2022-09-23T09:00:51.596Z,20
2022-09-23T09:03:24.575Z,21
2022-09-23T09:05:58.171Z,24
2022-09-23T09:08:30.593Z,23
2022-09-23T09:11:03.141Z,24
2022-09-23T09:13:34.005Z,18
2022-09-23T09:16:06.395Z,16
2022-09-23T09:18:38.900Z,16
2022-09-23T09:21:10.839Z,20
2022-09-23T09:23:43.300Z,16
2022-09-23T09:26:16.950Z,18
2022-09-23T09:28:49.527Z,16
2022-09-23T09:31:21.464Z,24
2022-09-23T09:33:53.359Z,16
2022-09-23T09:36:25.842Z,15
2022-09-23T09:38:58.161Z,16
2022-09-23T09:41:30.716Z,20
2022-09-23T09:44:03.044Z,12
2022-09-23T09:46:35.334Z,17
2022-09-23T09:49:08.487Z,13
2022-09-23T09:51:41.639Z,12
2022-09-23T09:54:13.995Z,13
2022-09-23T09:59:19.713Z,12
2022-09-23T10:01:52.480Z,13
2022-09-23T10:04:24.885Z,20
2022-09-23T10:06:57.093Z,15
2022-09-23T10:09:29.255Z,12
2022-09-23T10:12:01.419Z,16
2022-09-23T10:14:33.223Z,12
2022-09-23T10:17:06.901Z,12
2022-09-23T10:19:39.331Z,8
2022-09-23T10:22:13.706Z,15
2022-09-23T10:24:46.222Z,16
2022-09-23T10:27:18.415Z,8
2022-09-23T10:29:50.896Z,8
2022-09-23T10:32:23.878Z,8
2022-09-23T10:34:56.599Z,8
2022-09-23T10:37:29.086Z,8
2022-09-23T10:40:01.423Z,8
2022-09-23T10:42:33.864Z,8
2022-09-23T10:45:06.297Z,8
2022-09-23T10:47:38.300Z,4
2022-09-23T10:50:09.049Z,5
2022-09-23T10:52:41.446Z,9
2022-09-23T10:55:13.535Z,8
2022-09-23T10:57:47.102Z,5
2022-09-23T11:00:18.691Z,7
2022-09-23T11:02:50.982Z,8
2022-09-23T11:05:22.740Z,8
2022-09-23T11:07:55.031Z,15
2022-09-23T11:10:45.333Z,8
2022-09-23T11:12:59.696Z,12
2022-09-23T11:15:30.333Z,8
2022-09-23T11:18:02.530Z,5
2022-09-23T11:20:36.293Z,8
2022-09-23T11:23:08.654Z,9
2022-09-23T11:25:41.044Z,16
2022-09-23T11:28:13.002Z,12
2022-09-23T11:30:45.625Z,11
2022-09-23T11:33:17.446Z,12
2022-09-23T11:35:49.510Z,9
2022-09-23T11:38:21.525Z,8
2022-09-23T11:40:53.538Z,8
2022-09-23T11:43:28.225Z,8
2022-09-23T11:45:59.847Z,7
2022-09-23T11:48:31.471Z,7
2022-09-23T11:51:04.686Z,5
2022-09-23T11:53:36.713Z,4
2022-09-23T11:56:08.836Z,8
2022-09-23T11:58:41.048Z,4
2022-09-23T12:01:13.216Z,8
2022-09-23T12:03:45.410Z,8
2022-09-23T12:06:17.513Z,8
2022-09-23T12:08:49.514Z,8
2022-09-23T12:11:20.041Z,8
2022-09-23T12:13:52.270Z,8
2022-09-23T12:16:23.794Z,12
2022-09-23T12:18:55.811Z,8
2022-09-23T12:21:49.573Z,8
2022-09-23T12:24:03.077Z,8
2022-09-23T12:26:35.538Z,8
2022-09-23T12:29:07.174Z,4
2022-09-23T12:31:40.400Z,8
2022-09-23T12:34:11.536Z,7
2022-09-23T12:36:43.782Z,5
2022-09-23T12:39:16.273Z,8
2022-09-23T12:41:48.772Z,8
2022-09-23T12:44:21.145Z,8
2022-09-23T12:46:54.888Z,4
2022-09-23T12:49:25.565Z,8
2022-09-23T12:51:58.090Z,4
2022-09-23T12:54:30.821Z,8
2022-09-23T12:57:03.518Z,4
2022-09-23T12:59:36.034Z,4
2022-09-23T13:02:09.722Z,4
2022-09-23T13:04:41.559Z,8
2022-09-23T13:07:14.730Z,4
2022-09-23T13:09:46.870Z,4
2022-09-23T13:12:19.315Z,7
2022-09-23T13:14:52.096Z,5
2022-09-23T13:17:28.491Z,4
2022-09-23T13:20:01.171Z,8
2022-09-23T13:22:33.651Z,4
2022-09-23T13:25:06.875Z,7
2022-09-23T13:27:39.243Z,8
2022-09-23T13:30:11.872Z,8
2022-09-23T13:32:45.067Z,6
2022-09-23T13:35:16.860Z,8
2022-09-23T13:37:52.999Z,6
2022-09-23T13:40:27.061Z,8
2022-09-23T13:42:59.975Z,8
2022-09-23T13:45:33.726Z,8
2022-09-23T13:48:06.594Z,8
2022-09-23T13:50:39.689Z,8
2022-09-23T13:53:12.203Z,8
2022-09-23T13:55:47.941Z,8
2022-09-23T13:58:18.499Z,4
2022-09-23T14:00:51.017Z,4
2022-09-23T14:03:21.695Z,7
2022-09-23T14:05:54.143Z,10
2022-09-23T14:08:27.744Z,8
2022-09-23T14:11:00.096Z,8
2022-09-23T14:13:32.927Z,8
2022-09-23T14:16:08.796Z,16
2022-09-23T14:18:41.267Z,16
2022-09-23T14:21:16.973Z,9
2022-09-23T14:23:49.223Z,8
2022-09-23T14:26:22.098Z,8
2022-09-23T14:28:54.006Z,11
2022-09-23T14:31:26.234Z,8
2022-09-23T14:33:58.389Z,8
2022-09-23T14:36:30.915Z,8
2022-09-23T14:39:02.912Z,8
2022-09-23T14:41:33.245Z,8
2022-09-23T14:44:06.599Z,8
2022-09-23T14:46:38.934Z,8
2022-09-23T14:49:11.028Z,8
2022-09-23T14:51:43.126Z,20
2022-09-23T14:54:16.313Z,8
2022-09-23T14:56:48.758Z,8
2022-09-23T14:59:22.003Z,8
2022-09-23T15:01:54.085Z,10
2022-09-23T15:04:26.536Z,12
2022-09-23T15:06:58.670Z,8
2022-09-23T15:09:29.381Z,12
2022-09-23T15:12:02.010Z,8
2022-09-23T15:14:40.643Z,8
2022-09-23T15:17:04.836Z,8
2022-09-23T15:19:36.924Z,5
2022-09-23T15:22:09.076Z,4
2022-09-23T15:24:41.470Z,6
2022-09-23T15:27:13.929Z,5
2022-09-23T15:29:46.684Z,12
2022-09-23T15:32:19.056Z,8
2022-09-23T15:34:51.452Z,8
2022-09-23T15:37:23.927Z,4
2022-09-23T15:39:55.423Z,8
2022-09-23T15:42:27.202Z,4
2022-09-23T15:44:59.281Z,14
2022-09-23T15:47:32.041Z,8
2022-09-23T15:50:04.292Z,12
2022-09-23T15:52:37.049Z,9
2022-09-23T15:55:09.687Z,8
2022-09-23T15:57:43.267Z,8
2022-09-23T16:00:16.431Z,4
2022-09-23T16:02:57.217Z,8
2022-09-23T16:05:29.943Z,8
2022-09-23T16:08:06.394Z,8
2022-09-23T16:10:34.850Z,8
2022-09-23T16:13:07.385Z,16
2022-09-23T16:15:40.475Z,16
2022-09-23T16:18:13.910Z,12
2022-09-23T16:20:46.432Z,9
2022-09-23T16:23:18.681Z,8
2022-09-23T16:25:51.209Z,12
2022-09-23T16:28:23.524Z,8
2022-09-23T16:30:56.203Z,8
2022-09-23T16:33:28.449Z,9
2022-09-23T16:36:00.445Z,8
2022-09-23T16:38:32.684Z,8
2022-09-23T16:41:05.197Z,9
2022-09-23T16:43:37.042Z,12
2022-09-23T16:46:10.650Z,8
2022-09-23T16:48:44.974Z,12
2022-09-23T16:51:15.872Z,12
2022-09-23T16:53:47.881Z,16
2022-09-23T16:56:23.016Z,16
2022-09-23T16:58:52.171Z,16
2022-09-23T17:01:24.350Z,16
2022-09-23T17:03:56.493Z,15
2022-09-23T17:06:29.542Z,13
2022-09-23T17:09:01.843Z,21
2022-09-23T17:11:34.400Z,16
2022-09-23T17:14:06.868Z,23
2022-09-23T17:16:39.152Z,15
2022-09-23T17:19:11.233Z,20
2022-09-23T17:21:43.439Z,16
2022-09-23T17:24:15.775Z,16
2022-09-23T17:26:52.116Z,20
2022-09-23T17:29:21.720Z,22
2022-09-23T17:31:54.000Z,28
2022-09-23T17:34:26.984Z,33
2022-09-23T17:36:59.503Z,48
2022-09-23T17:39:31.851Z,36
2022-09-23T17:42:04.272Z,36
2022-09-23T17:44:36.642Z,36
2022-09-23T17:47:08.952Z,36
2022-09-23T17:49:41.183Z,37
2022-09-23T17:52:13.532Z,40
2022-09-23T17:54:45.946Z,44
2022-09-23T17:57:18.326Z,40
2022-09-23T17:59:51.668Z,40
2022-09-23T18:02:23.986Z,42
2022-09-23T18:04:56.668Z,44
2022-09-23T18:07:32.010Z,49
2022-09-23T18:10:05.974Z,48
2022-09-23T18:12:38.182Z,53
2022-09-23T18:15:10.443Z,56
2022-09-23T18:17:43.583Z,61
2022-09-23T18:20:15.762Z,52
2022-09-23T18:22:47.502Z,58
2022-09-23T18:25:37.966Z,59
2022-09-23T18:27:51.934Z,55
2022-09-23T18:30:24.000Z,59
2022-09-23T18:32:56.022Z,56
2022-09-23T18:35:28.076Z,58
2022-09-23T18:38:00.049Z,56
2022-09-23T18:40:32.078Z,48
2022-09-23T18:43:04.855Z,55
2022-09-23T18:45:37.024Z,54
2022-09-23T18:48:10.196Z,56
2022-09-23T18:50:43.547Z,60
2022-09-23T18:53:15.958Z,57
2022-09-23T18:55:48.432Z,56
2022-09-23T18:58:19.697Z,52
2022-09-23T19:00:52.000Z,56
2022-09-23T19:03:23.780Z,49
2022-09-23T19:05:55.912Z,52
2022-09-23T19:08:28.170Z,56
2022-09-23T19:11:00.192Z,52
2022-09-23T19:13:32.124Z,52
2022-09-23T19:16:04.907Z,52
2022-09-23T19:18:37.144Z,53
2022-09-23T19:21:11.429Z,57
2022-09-23T19:23:43.849Z,56
2022-09-23T19:26:17.443Z,56
2022-09-23T19:28:49.894Z,52
2022-09-23T19:31:23.533Z,52
2022-09-23T19:33:56.202Z,52
2022-09-23T19:36:28.492Z,50
2022-09-23T19:39:00.847Z,49
2022-09-23T19:41:33.824Z,48
2022-09-23T19:44:07.563Z,49
2022-09-23T19:46:39.707Z,48
2022-09-23T19:49:13.055Z,48
2022-09-23T19:51:43.914Z,45
2022-09-23T19:54:16.241Z,44
2022-09-23T19:56:48.673Z,44
2022-09-23T19:59:23.148Z,51
2022-09-23T20:01:55.788Z,44
2022-09-23T20:04:28.069Z,51
2022-09-23T20:06:58.829Z,52
2022-09-23T20:09:31.101Z,55
2022-09-23T20:12:03.671Z,71
2022-09-23T20:14:36.217Z,60
2022-09-23T20:17:08.394Z,52
2022-09-23T20:19:41.379Z,58
2022-09-23T20:22:13.589Z,52
2022-09-23T20:24:46.045Z,53
2022-09-23T20:27:18.269Z,53
2022-09-23T20:29:50.460Z,54
2022-09-23T20:32:23.125Z,48
2022-09-23T20:34:54.332Z,52
2022-09-23T20:37:25.732Z,48
2022-09-23T20:39:58.143Z,48
2022-09-23T20:42:31.023Z,52
2022-09-23T20:45:03.228Z,52
2022-09-23T20:47:36.891Z,52
2022-09-23T20:50:09.347Z,53
2022-09-23T20:52:41.924Z,52
2022-09-23T20:55:17.193Z,48
2022-09-23T20:57:49.384Z,48
2022-09-23T21:00:20.374Z,45
2022-09-23T21:02:51.908Z,44
2022-09-23T21:05:24.470Z,48
2022-09-23T21:07:59.591Z,48
2022-09-23T21:10:29.134Z,42
2022-09-23T21:13:03.418Z,48
2022-09-23T21:15:34.862Z,48
2022-09-23T21:18:10.084Z,44
2022-09-23T21:20:39.766Z,45
2022-09-23T21:23:12.095Z,44
2022-09-23T21:25:45.077Z,42
2022-09-23T21:28:16.334Z,44
2022-09-23T21:30:51.918Z,41
2022-09-23T21:33:21.188Z,41
2022-09-23T21:35:53.528Z,45
2022-09-23T21:38:26.091Z,40
2022-09-23T21:40:58.307Z,45
2022-09-23T21:43:30.527Z,43
2022-09-23T21:46:03.035Z,40
2022-09-23T21:48:34.965Z,38
2022-09-23T21:51:07.147Z,40
2022-09-23T21:53:39.477Z,41
2022-09-23T21:56:10.816Z,42
2022-09-23T21:58:41.487Z,40
2022-09-23T22:01:13.601Z,36
2022-09-23T22:03:45.942Z,41
2022-09-23T22:06:18.311Z,42
2022-09-23T22:08:51.646Z,44
2022-09-23T22:11:23.508Z,40
2022-09-23T22:13:56.060Z,36
2022-09-23T22:16:28.830Z,42
2022-09-23T22:19:00.257Z,41
2022-09-23T22:21:32.747Z,36
2022-09-23T22:24:06.250Z,37
2022-09-23T22:26:38.445Z,36
2022-09-23T22:29:10.887Z,36
2022-09-23T22:31:43.307Z,40
2022-09-23T22:34:31.192Z,43
2022-09-23T22:36:48.142Z,41
2022-09-23T22:39:21.670Z,44
2022-09-23T22:41:54.243Z,37
2022-09-23T22:44:26.591Z,40
2022-09-23T22:47:00.594Z,37
2022-09-23T22:49:33.137Z,39
2022-09-23T22:52:06.813Z,40
2022-09-23T22:54:39.350Z,36
2022-09-23T22:57:11.713Z,36
2022-09-23T22:59:44.197Z,40
2022-09-23T23:02:17.033Z,37
2022-09-23T23:04:49.389Z,36
2022-09-23T23:07:22.004Z,36
2022-09-23T23:09:54.701Z,40
2022-09-23T23:12:28.227Z,36
2022-09-23T23:15:00.586Z,40
2022-09-23T23:17:33.326Z,36
2022-09-23T23:20:06.940Z,36
2022-09-23T23:22:39.263Z,39
2022-09-23T23:25:11.728Z,32
2022-09-23T23:27:44.021Z,38
2022-09-23T23:30:16.329Z,36
2022-09-23T23:32:48.417Z,36
2022-09-23T23:35:21.550Z,36
2022-09-23T23:37:54.575Z,36
2022-09-23T23:40:27.143Z,35
2022-09-23T23:42:59.727Z,35
2022-09-23T23:45:32.199Z,32
2022-09-23T23:48:04.814Z,36
2022-09-23T23:50:37.464Z,36
2022-09-23T23:53:10.158Z,39
2022-09-23T23:55:43.758Z,37
2022-09-23T23:58:16.423Z,37
